createdAt,value
2018-02-12T00:00:25.771Z,3.76
2018-02-12T00:01:25.778Z,3.8
2018-02-12T00:02:26.528Z,3.88
2018-02-12T00:03:26.054Z,3.91
2018-02-12T00:04:26.318Z,3.83
2018-02-12T00:05:26.054Z,3.91
2018-02-12T00:06:25.841Z,4.01
2018-02-12T00:07:26.560Z,3.95
2018-02-12T00:08:26.118Z,3.81
2018-02-12T00:09:26.095Z,3.78
2018-02-12T00:10:26.762Z,3.62
2018-02-12T00:11:41.451Z,3.69
2018-02-12T00:12:26.170Z,3.74
2018-02-12T00:13:26.202Z,3.73
2018-02-12T00:14:26.193Z,3.77
2018-02-12T00:15:26.207Z,3.77
2018-02-12T00:16:25.968Z,3.69
2018-02-12T00:17:26.234Z,3.66
2018-02-12T00:18:26.010Z,3.74
2018-02-12T00:19:26.260Z,3.63
2018-02-12T00:20:26.285Z,3.69
2018-02-12T00:21:26.532Z,3.65
2018-02-12T00:22:26.542Z,3.65
2018-02-12T00:23:26.302Z,3.58
2018-02-12T00:24:26.339Z,3.6
2018-02-12T00:25:26.079Z,3.56
2018-02-12T00:26:26.624Z,3.47
2018-02-12T00:27:26.606Z,3.53
2018-02-12T00:28:26.366Z,3.53
2018-02-12T00:29:26.124Z,3.68
2018-02-12T00:30:26.390Z,3.65
2018-02-12T00:31:26.404Z,3.56
2018-02-12T00:32:26.164Z,3.56
2018-02-12T00:33:26.189Z,3.6
2018-02-12T00:34:26.695Z,3.66
2018-02-12T00:35:26.453Z,3.78
2018-02-12T00:36:26.212Z,3.76
2018-02-12T00:37:26.475Z,3.62
2018-02-12T00:38:26.486Z,3.69
2018-02-12T00:39:26.500Z,3.77
2018-02-12T00:40:26.765Z,3.86
2018-02-12T00:41:26.526Z,3.81
2018-02-12T00:42:26.537Z,3.63
2018-02-12T00:43:26.550Z,3.55
2018-02-12T00:44:26.563Z,3.65
2018-02-12T00:45:26.573Z,3.73
2018-02-12T00:46:26.833Z,3.73
2018-02-12T00:47:26.601Z,3.78
2018-02-12T00:48:26.358Z,3.76
2018-02-12T00:49:26.370Z,3.77
2018-02-12T00:50:26.886Z,3.8
2018-02-12T00:51:26.645Z,3.81
2018-02-12T00:52:26.671Z,3.91
2018-02-12T00:53:26.924Z,3.77
2018-02-12T00:54:26.682Z,3.74
2018-02-12T00:55:26.731Z,3.84
2018-02-12T00:56:26.708Z,3.95
2018-02-12T00:57:26.717Z,4.01
2018-02-12T00:58:26.998Z,3.94
2018-02-12T00:59:26.749Z,3.94
2018-02-12T01:00:26.510Z,4.01
2018-02-12T01:01:27.021Z,3.88
2018-02-12T01:02:27.040Z,3.87
2018-02-12T01:03:26.544Z,3.74
2018-02-12T01:04:26.815Z,3.74
2018-02-12T01:05:26.830Z,3.69
2018-02-12T01:06:26.580Z,3.63
2018-02-12T01:07:26.846Z,3.77
2018-02-12T01:08:26.627Z,3.73
2018-02-12T01:09:26.873Z,3.73
2018-02-12T01:10:26.632Z,3.74
2018-02-12T01:11:27.151Z,3.77
2018-02-12T01:12:26.953Z,3.84
2018-02-12T01:13:27.174Z,3.83
2018-02-12T01:14:27.184Z,3.76
2018-02-12T01:15:26.942Z,3.76
2018-02-12T01:16:27.205Z,3.74
2018-02-12T01:17:27.222Z,3.87
2018-02-12T01:18:26.983Z,3.77
2018-02-12T01:19:27.258Z,3.81
2018-02-12T01:20:26.756Z,3.78
2018-02-12T01:21:27.024Z,3.78
2018-02-12T01:22:27.033Z,3.83
2018-02-12T01:23:26.805Z,3.74
2018-02-12T01:24:27.079Z,3.83
2018-02-12T01:25:27.328Z,3.81
2018-02-12T01:26:27.082Z,3.74
2018-02-12T01:27:27.132Z,3.92
2018-02-12T01:28:27.366Z,3.88
2018-02-12T01:29:27.122Z,3.81
2018-02-12T01:30:27.133Z,3.8
2018-02-12T01:31:27.145Z,3.73
2018-02-12T01:32:27.410Z,3.8
2018-02-12T01:33:27.170Z,3.88
2018-02-12T01:34:27.437Z,3.8
2018-02-12T01:35:26.945Z,3.74
2018-02-12T01:36:26.964Z,3.81
2018-02-12T01:37:27.232Z,3.77
2018-02-12T01:38:27.237Z,3.76
2018-02-12T01:39:27.249Z,3.78
2018-02-12T01:40:27.264Z,3.77
2018-02-12T01:41:27.020Z,3.77
2018-02-12T01:42:27.314Z,3.7
2018-02-12T01:43:27.321Z,3.58
2018-02-12T01:44:27.562Z,3.56
2018-02-12T01:45:27.380Z,3.65
2018-02-12T01:46:27.345Z,3.74
2018-02-12T01:47:27.351Z,3.65
2018-02-12T01:48:27.362Z,3.59
2018-02-12T01:49:27.626Z,3.66
2018-02-12T01:50:27.635Z,3.76
2018-02-12T01:51:27.402Z,3.86
2018-02-12T01:52:27.410Z,3.84
2018-02-12T01:53:27.444Z,3.8
2018-02-12T01:54:27.734Z,3.7
2018-02-12T01:55:27.193Z,3.76
2018-02-12T01:56:27.706Z,3.76
2018-02-12T01:57:27.471Z,3.83
2018-02-12T01:58:27.734Z,3.77
2018-02-12T01:59:27.492Z,3.74
2018-02-12T02:00:27.262Z,3.87
2018-02-12T02:01:27.527Z,3.92
2018-02-12T02:02:27.539Z,4.05
2018-02-12T02:03:27.554Z,3.78
2018-02-12T02:04:27.323Z,3.87
2018-02-12T02:05:27.828Z,3.92
2018-02-12T02:06:27.838Z,3.86
2018-02-12T02:07:27.617Z,3.78
2018-02-12T02:08:27.873Z,3.94
2018-02-12T02:09:27.627Z,3.94
2018-02-12T02:10:27.639Z,3.87
2018-02-12T02:11:27.660Z,3.84
2018-02-12T02:12:27.663Z,3.76
2018-02-12T02:13:27.683Z,3.84
2018-02-12T02:14:27.441Z,3.87
2018-02-12T02:15:27.450Z,4.01
2018-02-12T02:16:27.710Z,3.99
2018-02-12T02:17:27.480Z,3.91
2018-02-12T02:18:27.740Z,3.83
2018-02-12T02:19:27.754Z,3.76
2018-02-12T02:20:28.027Z,3.66
2018-02-12T02:21:27.778Z,3.62
2018-02-12T02:22:27.540Z,3.73
2018-02-12T02:23:28.053Z,3.74
2018-02-12T02:24:28.070Z,3.77
2018-02-12T02:25:28.084Z,3.63
2018-02-12T02:26:27.840Z,3.65
2018-02-12T02:27:28.100Z,3.86
2018-02-12T02:28:28.171Z,3.88
2018-02-12T02:29:27.883Z,3.77
2018-02-12T02:30:27.643Z,3.8
2018-02-12T02:31:28.171Z,3.77
2018-02-12T02:32:28.172Z,3.8
2018-02-12T02:33:27.933Z,3.94
2018-02-12T02:34:27.947Z,3.84
2018-02-12T02:35:28.228Z,3.8
2018-02-12T02:36:28.217Z,3.74
2018-02-12T02:37:28.236Z,3.81
2018-02-12T02:38:28.008Z,3.84
2018-02-12T02:39:27.754Z,3.78
2018-02-12T02:40:28.021Z,3.8
2018-02-12T02:41:27.799Z,3.94
2018-02-12T02:42:28.297Z,3.86
2018-02-12T02:43:28.059Z,3.86
2018-02-12T02:44:27.825Z,3.77
2018-02-12T02:45:28.333Z,3.8
2018-02-12T02:46:28.093Z,3.8
2018-02-12T02:47:28.124Z,3.92
2018-02-12T02:48:27.867Z,3.91
2018-02-12T02:49:28.132Z,4.02
2018-02-12T02:50:28.169Z,3.87
2018-02-12T02:51:28.162Z,4.01
2018-02-12T02:52:28.427Z,3.78
2018-02-12T02:53:28.184Z,3.8
2018-02-12T02:54:28.443Z,3.81
2018-02-12T02:55:28.459Z,4.01
2018-02-12T02:56:28.479Z,3.94
2018-02-12T02:57:28.241Z,4.1
2018-02-12T02:58:28.249Z,3.99
2018-02-12T02:59:28.522Z,3.77
2018-02-12T03:00:28.527Z,3.83
2018-02-12T03:01:28.078Z,3.69
2018-02-12T03:02:28.550Z,3.6
2018-02-12T03:03:28.568Z,3.74
2018-02-12T03:04:28.366Z,3.73
2018-02-12T03:05:28.348Z,3.76
2018-02-12T03:06:28.100Z,3.78
2018-02-12T03:07:28.615Z,3.8
2018-02-12T03:08:28.377Z,3.74
2018-02-12T03:09:28.393Z,3.76
2018-02-12T03:10:28.400Z,3.77
2018-02-12T03:11:28.427Z,3.8
2018-02-12T03:12:28.430Z,3.76
2018-02-12T03:13:28.686Z,3.83
2018-02-12T03:14:28.200Z,3.87
2018-02-12T03:15:28.715Z,3.94
2018-02-12T03:16:28.233Z,3.91
2018-02-12T03:17:28.237Z,3.94
2018-02-12T03:18:28.753Z,3.78
2018-02-12T03:19:28.770Z,3.81
2018-02-12T03:20:28.775Z,3.73
2018-02-12T03:21:28.287Z,3.87
2018-02-12T03:22:28.552Z,4.01
2018-02-12T03:23:28.566Z,4.06
2018-02-12T03:24:28.581Z,4.08
2018-02-12T03:25:28.853Z,4.02
2018-02-12T03:26:28.606Z,4.17
2018-02-12T03:27:28.871Z,4.16
2018-02-12T03:28:28.377Z,4.14
2018-02-12T03:29:28.892Z,4.08
2018-02-12T03:30:28.687Z,4.22
2018-02-12T03:31:28.927Z,4.23
2018-02-12T03:32:28.433Z,4.2
2018-02-12T03:33:28.696Z,4.34
2018-02-12T03:34:28.707Z,4.52
2018-02-12T03:35:28.979Z,4.48
2018-02-12T03:36:28.731Z,4.45
2018-02-12T03:37:28.747Z,4.48
2018-02-12T03:38:28.763Z,4.45
2018-02-12T03:39:28.527Z,4.44
2018-02-12T03:40:28.785Z,4.52
2018-02-12T03:41:29.048Z,4.37
2018-02-12T03:42:28.811Z,4.49
2018-02-12T03:43:28.576Z,4.5
2018-02-12T03:44:28.833Z,4.5
2018-02-12T03:45:28.612Z,4.52
2018-02-12T03:46:29.114Z,4.4
2018-02-12T03:47:29.130Z,4.34
2018-02-12T03:48:28.642Z,4.49
2018-02-12T03:49:28.655Z,4.32
2018-02-12T03:50:28.918Z,4.35
2018-02-12T03:51:28.926Z,4.26
2018-02-12T03:52:28.713Z,4.3
2018-02-12T03:53:28.721Z,4.19
2018-02-12T03:54:28.966Z,4.17
2018-02-12T03:55:28.983Z,4.23
2018-02-12T03:56:28.998Z,4.2
2018-02-12T03:57:29.272Z,4.19
2018-02-12T03:58:29.275Z,4.2
2018-02-12T03:59:29.036Z,4.17
2018-02-12T04:00:29.048Z,4.2
2018-02-12T04:01:29.316Z,4.31
2018-02-12T04:02:28.824Z,4.17
2018-02-12T04:03:29.090Z,4.24
2018-02-12T04:04:29.105Z,4.14
2018-02-12T04:05:28.860Z,4.04
2018-02-12T04:06:28.878Z,4.05
2018-02-12T04:07:29.152Z,4.08
2018-02-12T04:08:29.405Z,4.1
2018-02-12T04:09:29.174Z,4.06
2018-02-12T04:10:28.929Z,4.1
2018-02-12T04:11:29.464Z,3.96
2018-02-12T04:12:29.204Z,4.04
2018-02-12T04:13:28.978Z,3.98
2018-02-12T04:14:29.240Z,3.99
2018-02-12T04:15:29.492Z,4.04
2018-02-12T04:16:29.256Z,4.05
2018-02-12T04:17:29.270Z,3.86
2018-02-12T04:18:29.286Z,3.94
2018-02-12T04:19:29.043Z,3.96
2018-02-12T04:20:29.565Z,3.98
2018-02-12T04:21:29.095Z,3.96
2018-02-12T04:22:29.587Z,4.05
2018-02-12T04:23:29.608Z,3.96
2018-02-12T04:24:29.108Z,3.99
2018-02-12T04:25:29.125Z,4.01
2018-02-12T04:26:29.641Z,3.94
2018-02-12T04:27:29.399Z,4.04
2018-02-12T04:28:29.195Z,4.1
2018-02-12T04:29:29.685Z,4.02
2018-02-12T04:30:29.691Z,4.05
2018-02-12T04:31:29.753Z,3.96
2018-02-12T04:32:29.720Z,4.02
2018-02-12T04:33:29.224Z,4.05
2018-02-12T04:34:29.497Z,4.16
2018-02-12T04:35:29.521Z,4.22
2018-02-12T04:36:29.513Z,4.12
2018-02-12T04:37:29.527Z,4.14
2018-02-12T04:38:29.554Z,4.22
2018-02-12T04:39:29.555Z,4.22
2018-02-12T04:40:29.318Z,4.3
2018-02-12T04:41:29.584Z,4.26
2018-02-12T04:42:29.346Z,4.19
2018-02-12T04:43:29.607Z,4.31
2018-02-12T04:44:29.877Z,4.2
2018-02-12T04:45:29.385Z,4.28
2018-02-12T04:46:29.644Z,4.31
2018-02-12T04:47:29.658Z,4.38
2018-02-12T04:48:29.675Z,4.28
2018-02-12T04:49:29.434Z,4.31
2018-02-12T04:50:30.152Z,4.44
2018-02-12T04:51:30.005Z,4.37
2018-02-12T04:52:29.728Z,4.41
2018-02-12T04:53:29.741Z,4.35
2018-02-12T04:54:29.752Z,4.48
2018-02-12T04:55:29.515Z,4.49
2018-02-12T04:56:30.035Z,4.58
2018-02-12T04:57:29.793Z,4.6
2018-02-12T04:58:30.061Z,4.6
2018-02-12T04:59:29.817Z,4.44
2018-02-12T05:00:30.082Z,4.5
2018-02-12T05:01:30.096Z,4.4
2018-02-12T05:02:29.856Z,4.31
2018-02-12T05:03:30.131Z,4.44
2018-02-12T05:04:29.893Z,4.52
2018-02-12T05:05:29.898Z,4.34
2018-02-12T05:06:29.911Z,4.31
2018-02-12T05:07:29.674Z,4.32
2018-02-12T05:08:29.691Z,4.35
2018-02-12T05:09:29.951Z,4.23
2018-02-12T05:10:30.218Z,4.22
2018-02-12T05:11:29.726Z,4.38
2018-02-12T05:12:30.349Z,4.22
2018-02-12T05:13:30.269Z,4.19
2018-02-12T05:14:30.017Z,4.04
2018-02-12T05:15:30.031Z,4.02
2018-02-12T05:16:29.792Z,4.22
2018-02-12T05:17:30.060Z,4.19
2018-02-12T05:18:30.075Z,4.2
2018-02-12T05:19:29.839Z,4.23
2018-02-12T05:20:30.352Z,4.14
2018-02-12T05:21:30.129Z,4.28
2018-02-12T05:22:30.121Z,4.38
2018-02-12T05:23:30.390Z,4.35
2018-02-12T05:24:30.397Z,4.45
2018-02-12T05:25:30.164Z,4.45
2018-02-12T05:26:30.173Z,4.5
2018-02-12T05:27:45.114Z,4.53
2018-02-12T05:28:30.454Z,4.62
2018-02-12T05:29:30.465Z,4.5
2018-02-12T05:30:30.228Z,4.38
2018-02-12T05:31:30.240Z,4.31
2018-02-12T05:32:30.298Z,4.32
2018-02-12T05:33:30.025Z,4.2
2018-02-12T05:34:30.286Z,4.06
2018-02-12T05:35:30.294Z,4.19
2018-02-12T05:36:30.565Z,4.14
2018-02-12T05:37:30.581Z,4.31
2018-02-12T05:38:30.335Z,4.49
2018-02-12T05:39:30.357Z,4.4
2018-02-12T05:40:30.612Z,4.31
2018-02-12T05:41:30.624Z,4.19
2018-02-12T05:42:30.145Z,4.06
2018-02-12T05:43:30.681Z,4.1
2018-02-12T05:44:30.661Z,4.16
2018-02-12T05:45:30.424Z,3.74
2018-02-12T05:46:30.189Z,3.59
2018-02-12T05:47:30.707Z,3.8
2018-02-12T05:48:30.463Z,3.76
2018-02-12T05:49:30.754Z,3.8
2018-02-12T05:50:30.743Z,3.73
2018-02-12T05:51:30.506Z,3.73
2018-02-12T05:52:30.767Z,3.77
2018-02-12T05:53:30.530Z,3.81
2018-02-12T05:54:30.307Z,3.91
2018-02-12T05:55:30.552Z,3.88
2018-02-12T05:56:30.822Z,3.98
2018-02-12T05:57:30.328Z,4.02
2018-02-12T05:58:30.592Z,3.99
2018-02-12T05:59:30.862Z,4.02
2018-02-12T06:00:30.883Z,4.12
2018-02-12T06:01:30.642Z,4.04
2018-02-12T06:02:30.901Z,3.98
2018-02-12T06:03:30.406Z,3.8
2018-02-12T06:04:30.920Z,3.69
2018-02-12T06:05:30.937Z,3.77
2018-02-12T06:06:30.951Z,3.83
2018-02-12T06:07:30.960Z,3.94
2018-02-12T06:08:30.973Z,3.88
2018-02-12T06:09:30.738Z,3.99
2018-02-12T06:10:31.001Z,4.02
2018-02-12T06:11:30.770Z,4.05
2018-02-12T06:12:31.026Z,3.95
2018-02-12T06:13:30.790Z,4.1
2018-02-12T06:14:30.811Z,4.01
2018-02-12T06:15:31.072Z,4.04
2018-02-12T06:16:30.575Z,3.91
2018-02-12T06:17:30.844Z,3.77
2018-02-12T06:18:31.112Z,3.69
2018-02-12T06:19:31.118Z,3.73
2018-02-12T06:20:30.930Z,3.69
2018-02-12T06:21:31.142Z,3.76
2018-02-12T06:22:30.906Z,3.78
2018-02-12T06:23:30.679Z,3.8
2018-02-12T06:24:30.930Z,3.78
2018-02-12T06:25:30.690Z,3.69
2018-02-12T06:26:31.219Z,3.63
2018-02-12T06:27:30.967Z,3.59
2018-02-12T06:28:31.235Z,3.58
2018-02-12T06:29:30.742Z,3.65
2018-02-12T06:30:31.265Z,3.6
2018-02-12T06:31:31.278Z,3.73
2018-02-12T06:32:31.309Z,3.73
2018-02-12T06:33:31.297Z,3.66
2018-02-12T06:34:31.057Z,3.76
2018-02-12T06:35:30.822Z,3.7
2018-02-12T06:36:31.348Z,3.88
2018-02-12T06:37:31.111Z,3.78
2018-02-12T06:38:30.860Z,3.77
2018-02-12T06:39:31.125Z,3.76
2018-02-12T06:40:31.135Z,3.59
2018-02-12T06:41:31.146Z,3.78
2018-02-12T06:42:31.412Z,3.73
2018-02-12T06:43:31.425Z,3.81
2018-02-12T06:44:31.196Z,3.59
2018-02-12T06:45:31.196Z,3.48
2018-02-12T06:46:31.463Z,3.56
2018-02-12T06:47:31.471Z,3.56
2018-02-12T06:48:31.482Z,3.51
2018-02-12T06:49:31.246Z,3.62
2018-02-12T06:50:31.509Z,3.56
2018-02-12T06:51:31.275Z,3.62
2018-02-12T06:52:31.286Z,3.6
2018-02-12T06:53:31.316Z,3.59
2018-02-12T06:54:31.309Z,3.55
2018-02-12T06:55:31.071Z,3.41
2018-02-12T06:56:31.337Z,3.53
2018-02-12T06:57:31.096Z,3.5
2018-02-12T06:58:31.118Z,3.53
2018-02-12T06:59:31.123Z,3.58
2018-02-12T07:00:31.153Z,3.51
2018-02-12T07:01:31.407Z,3.5
2018-02-12T07:02:31.675Z,3.48
2018-02-12T07:03:31.671Z,3.4
2018-02-12T07:04:31.689Z,3.32
2018-02-12T07:05:31.700Z,3.32
2018-02-12T07:06:31.718Z,3.42
2018-02-12T07:07:31.473Z,3.45
2018-02-12T07:08:31.485Z,3.47
2018-02-12T07:09:31.752Z,3.55
2018-02-12T07:10:31.514Z,3.48
2018-02-12T07:11:31.781Z,3.5
2018-02-12T07:12:31.593Z,3.5
2018-02-12T07:13:31.797Z,3.63
2018-02-12T07:14:31.818Z,3.55
2018-02-12T07:15:31.835Z,3.58
2018-02-12T07:16:31.843Z,3.65
2018-02-12T07:17:31.599Z,3.65
2018-02-12T07:18:31.615Z,3.66
2018-02-12T07:19:31.627Z,3.59
2018-02-12T07:20:31.699Z,3.48
2018-02-12T07:21:31.652Z,3.48
2018-02-12T07:22:31.928Z,3.5
2018-02-12T07:23:31.937Z,3.48
2018-02-12T07:24:31.694Z,3.62
2018-02-12T07:25:31.705Z,3.6
2018-02-12T07:26:31.715Z,3.76
2018-02-12T07:27:31.477Z,3.53
2018-02-12T07:28:31.493Z,3.36
2018-02-12T07:29:32.006Z,3.51
2018-02-12T07:30:31.512Z,3.48
2018-02-12T07:31:32.042Z,3.5
2018-02-12T07:32:32.045Z,3.63
2018-02-12T07:33:32.055Z,3.73
2018-02-12T07:34:31.564Z,3.74
2018-02-12T07:35:32.082Z,3.6
2018-02-12T07:36:31.838Z,3.5
2018-02-12T07:37:32.099Z,3.5
2018-02-12T07:38:31.869Z,3.44
2018-02-12T07:39:31.877Z,3.37
2018-02-12T07:40:32.143Z,3.59
2018-02-12T07:41:32.172Z,3.68
2018-02-12T07:42:31.913Z,3.78
2018-02-12T07:43:31.925Z,3.69
2018-02-12T07:44:31.686Z,3.86
2018-02-12T07:45:31.951Z,3.74
2018-02-12T07:46:31.962Z,3.62
2018-02-12T07:47:31.727Z,3.8
2018-02-12T07:48:31.992Z,3.76
2018-02-12T07:49:32.000Z,3.78
2018-02-12T07:50:32.268Z,3.73
2018-02-12T07:51:31.780Z,3.65
2018-02-12T07:52:32.044Z,3.73
2018-02-12T07:53:32.046Z,3.83
2018-02-12T07:54:32.064Z,3.74
2018-02-12T07:55:32.078Z,3.77
2018-02-12T07:56:32.102Z,3.8
2018-02-12T07:57:32.104Z,3.78
2018-02-12T07:58:31.866Z,3.68
2018-02-12T07:59:31.883Z,3.65
2018-02-12T08:00:32.189Z,3.62
2018-02-12T08:01:32.156Z,3.68
2018-02-12T08:02:32.169Z,3.66
2018-02-12T08:03:32.187Z,3.58
2018-02-12T08:04:32.196Z,3.53
2018-02-12T08:05:32.473Z,3.45
2018-02-12T08:06:32.223Z,3.53
2018-02-12T08:07:32.234Z,3.59
2018-02-12T08:08:32.253Z,3.74
2018-02-12T08:09:32.260Z,3.55
2018-02-12T08:10:32.276Z,3.53
2018-02-12T08:11:32.282Z,3.6
2018-02-12T08:12:32.305Z,3.59
2018-02-12T08:13:32.057Z,3.78
2018-02-12T08:14:32.332Z,3.84
2018-02-12T08:15:32.597Z,3.92
2018-02-12T08:16:32.357Z,3.98
2018-02-12T08:17:32.615Z,4.04
2018-02-12T08:18:32.459Z,3.8
2018-02-12T08:19:32.641Z,3.78
2018-02-12T08:20:32.656Z,3.68
2018-02-12T08:21:32.414Z,3.77
2018-02-12T08:22:32.428Z,3.81
2018-02-12T08:23:32.444Z,3.96
2018-02-12T08:24:32.723Z,3.91
2018-02-12T08:25:32.470Z,4.02
2018-02-12T08:26:32.230Z,3.78
2018-02-12T08:27:32.769Z,3.29
2018-02-12T08:28:32.503Z,3.32
2018-02-12T08:29:32.261Z,3.48
2018-02-12T08:30:32.526Z,3.48
2018-02-12T08:31:32.289Z,3.51
2018-02-12T08:32:32.802Z,3.55
2018-02-12T08:33:32.826Z,3.59
2018-02-12T08:34:32.586Z,3.5
2018-02-12T08:35:32.628Z,3.45
2018-02-12T08:36:32.608Z,3.41
2018-02-12T08:37:32.386Z,3.53
2018-02-12T08:38:32.388Z,3.34
2018-02-12T08:39:32.900Z,3.31
2018-02-12T08:40:32.657Z,3.29
2018-02-12T08:41:32.928Z,3.31
2018-02-12T08:42:32.694Z,3.31
2018-02-12T08:43:32.972Z,3.37
2018-02-12T08:44:32.463Z,3.32
2018-02-12T08:45:32.475Z,3.45
2018-02-12T08:46:32.740Z,3.53
2018-02-12T08:47:32.752Z,3.32
2018-02-12T08:48:33.031Z,3.32
2018-02-12T08:49:32.527Z,3.4
2018-02-12T08:50:32.540Z,3.32
2018-02-12T08:51:33.067Z,3.31
2018-02-12T08:52:33.069Z,3.25
2018-02-12T08:53:32.579Z,3.23
2018-02-12T08:54:32.842Z,3.31
2018-02-12T08:55:33.230Z,3.36
2018-02-12T08:56:32.616Z,3.23
2018-02-12T08:57:32.630Z,3.28
2018-02-12T08:58:33.149Z,3.36
2018-02-12T08:59:33.155Z,3.51
2018-02-12T09:00:32.921Z,3.51
2018-02-12T09:01:32.946Z,3.59
2018-02-12T09:02:32.946Z,3.76
2018-02-12T09:03:32.709Z,3.66
2018-02-12T09:04:32.977Z,3.65
2018-02-12T09:05:32.985Z,3.6
2018-02-12T09:06:33.250Z,3.6
2018-02-12T09:07:33.022Z,3.62
2018-02-12T09:08:32.777Z,3.73
2018-02-12T09:09:33.288Z,3.86
2018-02-12T09:10:33.321Z,3.96
2018-02-12T09:11:33.064Z,3.99
2018-02-12T09:12:33.352Z,4.01
2018-02-12T09:13:32.837Z,4.04
2018-02-12T09:14:33.358Z,4.05
2018-02-12T09:15:33.112Z,4.12
2018-02-12T09:16:33.141Z,4.12
2018-02-12T09:17:33.397Z,4.05
2018-02-12T09:18:33.412Z,4.1
2018-02-12T09:19:33.170Z,3.88
2018-02-12T09:20:33.185Z,3.7
2018-02-12T09:21:33.191Z,3.78
2018-02-12T09:22:33.218Z,4.02
2018-02-12T09:23:33.223Z,3.98
2018-02-12T09:24:33.258Z,3.8
2018-02-12T09:25:33.253Z,4.02
2018-02-12T09:26:33.260Z,4.23
2018-02-12T09:27:33.527Z,4.14
2018-02-12T09:28:33.539Z,4.16
2018-02-12T09:29:33.570Z,4.2
2018-02-12T09:30:33.318Z,4.14
2018-02-12T09:31:33.078Z,4.17
2018-02-12T09:32:33.091Z,4.24
2018-02-12T09:33:33.376Z,4.32
2018-02-12T09:34:33.369Z,4.16
2018-02-12T09:35:33.385Z,3.98
2018-02-12T09:36:33.651Z,4.17
2018-02-12T09:37:33.413Z,4.19
2018-02-12T09:38:33.705Z,4.42
2018-02-12T09:39:33.438Z,4.5
2018-02-12T09:40:33.449Z,4.56
2018-02-12T09:41:33.504Z,4.66
2018-02-12T09:42:33.228Z,4.52
2018-02-12T09:43:33.507Z,4.52
2018-02-12T09:44:33.761Z,4.45
2018-02-12T09:45:33.775Z,4.26
2018-02-12T09:46:33.800Z,4.3
2018-02-12T09:47:33.872Z,4.22
2018-02-12T09:48:33.567Z,4.31
2018-02-12T09:49:33.325Z,4.6
2018-02-12T09:50:33.642Z,4.7
2018-02-12T09:51:33.856Z,4.74
2018-02-12T09:52:33.617Z,4.63
2018-02-12T09:53:33.587Z,4.66
2018-02-12T09:54:33.665Z,4.7
2018-02-12T09:55:33.669Z,4.56
2018-02-12T09:56:33.671Z,4.63
2018-02-12T09:57:33.683Z,4.42
2018-02-12T09:58:33.700Z,4.42
2018-02-12T09:59:33.459Z,4.31
2018-02-12T10:00:33.993Z,4.3
2018-02-12T10:01:33.742Z,4.14
2018-02-12T10:02:34.007Z,3.94
2018-02-12T10:03:33.767Z,3.94
2018-02-12T10:04:34.032Z,3.96
2018-02-12T10:05:34.056Z,3.96
2018-02-12T10:06:34.064Z,3.8
2018-02-12T10:07:34.129Z,3.8
2018-02-12T10:08:33.856Z,3.84
2018-02-12T10:09:34.106Z,4.08
2018-02-12T10:10:33.864Z,4.3
2018-02-12T10:11:33.878Z,4.52
2018-02-12T10:12:34.136Z,4.49
2018-02-12T10:13:33.665Z,4.35
2018-02-12T10:14:33.918Z,4.52
2018-02-12T10:15:33.958Z,4.5
2018-02-12T10:16:33.941Z,4.7
2018-02-12T10:17:33.956Z,4.7
2018-02-12T10:18:33.705Z,4.92
2018-02-12T10:19:34.236Z,4.94
2018-02-12T10:20:33.784Z,5.05
2018-02-12T10:21:33.750Z,5.04
2018-02-12T10:22:34.030Z,5.07
2018-02-12T10:23:34.039Z,5.18
2018-02-12T10:24:34.313Z,5.08
2018-02-12T10:25:34.323Z,4.99
2018-02-12T10:26:33.831Z,5.02
2018-02-12T10:27:34.354Z,5.15
2018-02-12T10:28:34.372Z,5.44
2018-02-12T10:29:34.413Z,5.54
2018-02-12T10:30:34.150Z,5.57
2018-02-12T10:31:34.415Z,5.64
2018-02-12T10:32:34.431Z,5.87
2018-02-12T10:33:34.445Z,6.39
2018-02-12T10:34:34.226Z,6.44
2018-02-12T10:35:33.982Z,6.38
2018-02-12T10:36:34.498Z,6.28
2018-02-12T10:37:34.372Z,6.38
2018-02-12T10:38:34.539Z,6.42
2018-02-12T10:39:34.548Z,6.66
2018-02-12T10:40:34.321Z,7.18
2018-02-12T10:41:34.602Z,7.47
2018-02-12T10:42:34.104Z,7.35
2018-02-12T10:43:34.129Z,7.11
2018-02-12T10:44:34.139Z,7.07
2018-02-12T10:45:34.162Z,7.18
2018-02-12T10:46:34.174Z,7.11
2018-02-12T10:47:34.695Z,7.21
2018-02-12T10:48:34.465Z,6.87
2018-02-12T10:49:34.508Z,6.56
2018-02-12T10:50:34.501Z,6.92
2018-02-12T10:51:34.520Z,7.05
2018-02-12T10:52:34.560Z,6.89
2018-02-12T10:53:34.557Z,7.1
2018-02-12T10:54:34.576Z,6.95
2018-02-12T10:55:34.350Z,6.67
2018-02-12T10:56:34.379Z,6.63
2018-02-12T10:57:34.879Z,6.24
2018-02-12T10:58:34.894Z,6.28
2018-02-12T10:59:34.672Z,6.31
2018-02-12T11:00:34.679Z,6.22
2018-02-12T11:01:34.704Z,6.16
2018-02-12T11:02:35.008Z,6.22
2018-02-12T11:03:34.997Z,6.31
2018-02-12T11:04:34.749Z,6.3
2018-02-12T11:05:35.011Z,6.56
2018-02-12T11:06:35.050Z,6.67
2018-02-12T11:07:34.806Z,6.66
2018-02-12T11:08:34.817Z,6.74
2018-02-12T11:09:34.830Z,6.72
2018-02-12T11:10:34.597Z,6.38
2018-02-12T11:11:35.115Z,6.38
2018-02-12T11:12:35.137Z,6.07
2018-02-12T11:13:35.147Z,5.8
2018-02-12T11:14:34.919Z,5.59
2018-02-12T11:15:34.931Z,5.44
2018-02-12T11:16:35.222Z,5.69
2018-02-12T11:17:34.959Z,5.83
2018-02-12T11:18:34.986Z,5.89
2018-02-12T11:19:35.247Z,5.9
2018-02-12T11:20:35.010Z,5.68
2018-02-12T11:21:35.023Z,5.72
2018-02-12T11:22:34.791Z,5.56
2018-02-12T11:23:35.059Z,5.62
2018-02-12T11:24:35.320Z,5.53
2018-02-12T11:25:35.085Z,5.46
2018-02-12T11:26:35.102Z,5.44
2018-02-12T11:27:35.116Z,5.46
2018-02-12T11:28:35.157Z,5.64
2018-02-12T11:29:35.156Z,5.68
2018-02-12T11:30:34.916Z,5.69
2018-02-12T11:31:35.187Z,5.84
2018-02-12T11:32:35.199Z,6.08
2018-02-12T11:33:35.562Z,6.38
2018-02-12T11:34:35.485Z,6.84
2018-02-12T11:35:35.520Z,6.96
2018-02-12T11:36:35.521Z,7.28
2018-02-12T11:37:35.041Z,7.24
2018-02-12T11:38:35.054Z,7.15
2018-02-12T11:39:35.075Z,7.4
2018-02-12T11:40:35.363Z,7.76
2018-02-12T11:41:35.618Z,7.87
2018-02-12T11:42:35.137Z,7.75
2018-02-12T11:43:35.151Z,7.5
2018-02-12T11:44:35.426Z,7.23
2018-02-12T11:45:35.447Z,7.36
2018-02-12T11:46:35.467Z,7.36
2018-02-12T11:47:35.235Z,7.4
2018-02-12T11:48:35.513Z,7.43
2018-02-12T11:49:35.778Z,7.53
2018-02-12T11:50:35.547Z,7.33
2018-02-12T11:51:35.570Z,7.11
2018-02-12T11:52:35.831Z,6.72
2018-02-12T11:53:35.596Z,6.64
2018-02-12T11:54:35.615Z,6.35
2018-02-12T11:55:35.637Z,6.63
2018-02-12T11:56:35.903Z,6.49
2018-02-12T11:57:35.418Z,6.45
2018-02-12T11:58:35.685Z,6.59
2018-02-12T11:59:35.454Z,6.67
2018-02-12T12:00:35.726Z,6.72
2018-02-12T12:01:35.751Z,6.85
2018-02-12T12:02:35.764Z,7.13
2018-02-12T12:03:35.539Z,7.42
2018-02-12T12:04:35.805Z,7.63
2018-02-12T12:05:35.822Z,7.53
2018-02-12T12:06:35.848Z,7.61
2018-02-12T12:07:36.110Z,8.01
2018-02-12T12:08:35.624Z,8.13
2018-02-12T12:09:35.891Z,8.33
2018-02-12T12:10:35.929Z,8.49
2018-02-12T12:11:35.701Z,8.41
2018-02-12T12:12:36.205Z,8.38
2018-02-12T12:13:35.979Z,8.28
2018-02-12T12:14:35.998Z,8.73
2018-02-12T12:15:36.266Z,9.21
2018-02-12T12:16:35.784Z,9.4
2018-02-12T12:17:36.323Z,9.4
2018-02-12T12:18:36.075Z,9.66
2018-02-12T12:19:36.404Z,9.99
2018-02-12T12:20:36.375Z,9.58
2018-02-12T12:21:36.141Z,9.51
2018-02-12T12:22:36.162Z,9.48
2018-02-12T12:23:36.184Z,9.8
2018-02-12T12:24:36.204Z,9.84
2018-02-12T12:25:35.974Z,9.79
2018-02-12T12:26:36.504Z,9.91
2018-02-12T12:27:36.268Z,9.55
2018-02-12T12:28:36.292Z,9.54
2018-02-12T12:29:36.566Z,9.82
2018-02-12T12:30:36.586Z,9.77
2018-02-12T12:31:36.607Z,10.12
2018-02-12T12:32:36.383Z,10.35
2018-02-12T12:33:36.420Z,10.75
2018-02-12T12:34:36.675Z,11.08
2018-02-12T12:35:36.702Z,11.32
2018-02-12T12:36:36.722Z,11.14
2018-02-12T12:37:36.500Z,11.04
2018-02-12T12:38:36.517Z,10.34
2018-02-12T12:39:36.546Z,9.89
2018-02-12T12:40:36.868Z,9.8
2018-02-12T12:41:36.591Z,9.59
2018-02-12T12:42:36.871Z,9.84
2018-02-12T12:43:36.363Z,9.87
2018-02-12T12:44:36.883Z,10.05
2018-02-12T12:45:36.682Z,10.26
2018-02-12T12:46:36.699Z,10.81
2018-02-12T12:47:36.718Z,10.99
2018-02-12T12:48:36.489Z,11.23
2018-02-12T12:49:36.785Z,10.99
2018-02-12T12:50:36.537Z,10.9
2018-02-12T12:51:36.814Z,11.26
2018-02-12T12:52:37.097Z,11.45
2018-02-12T12:53:37.114Z,11.45
2018-02-12T12:54:36.630Z,11.19
2018-02-12T12:55:36.661Z,11.43
2018-02-12T12:56:36.932Z,11.69
2018-02-12T12:57:36.710Z,11.57
2018-02-12T12:58:37.231Z,11.54
2018-02-12T12:59:37.268Z,10.89
2018-02-12T13:00:37.278Z,10.67
2018-02-12T13:01:37.304Z,10.51
2018-02-12T13:02:37.074Z,9.95
2018-02-12T13:03:37.098Z,9.46
2018-02-12T13:04:36.881Z,9.56
2018-02-12T13:05:37.137Z,9.4
2018-02-12T13:06:37.410Z,9.29
2018-02-12T13:07:37.189Z,9.34
2018-02-12T13:08:37.458Z,9.36
2018-02-12T13:09:37.481Z,9.1
2018-02-12T13:10:36.999Z,8.74
2018-02-12T13:11:37.268Z,8.61
2018-02-12T13:12:37.294Z,8.28
2018-02-12T13:13:37.306Z,7.47
2018-02-12T13:14:37.582Z,6.99
2018-02-12T13:15:37.601Z,7.13
2018-02-12T13:16:37.613Z,7.18
2018-02-12T13:17:37.385Z,7.32
2018-02-12T13:18:37.400Z,7.23
2018-02-12T13:19:37.167Z,7.33
2018-02-12T13:20:37.691Z,7.17